createdAt,value
2023-11-02T00:00:46.363Z,0
2023-11-02T00:01:51.516Z,0
2023-11-02T00:02:57.667Z,0
2023-11-02T00:04:03.802Z,0
2023-11-02T00:05:09.958Z,0
2023-11-02T00:06:16.089Z,0
2023-11-02T00:07:22.242Z,0
2023-11-02T00:08:28.383Z,0
2023-11-02T00:09:34.530Z,0
2023-11-02T00:10:40.662Z,0
2023-11-02T00:11:46.800Z,0
2023-11-02T00:12:52.956Z,0
2023-11-02T00:13:59.097Z,0
2023-11-02T00:15:05.249Z,0
2023-11-02T00:16:10.398Z,0
2023-11-02T00:17:16.540Z,0
2023-11-02T00:18:22.681Z,0
2023-11-02T00:19:28.821Z,0
2023-11-02T00:20:34.971Z,0
2023-11-02T00:21:41.123Z,0
2023-11-02T00:22:47.259Z,0
2023-11-02T00:23:53.408Z,0
2023-11-02T00:24:59.583Z,0
2023-11-02T00:26:05.687Z,0
2023-11-02T00:27:11.841Z,0
2023-11-02T00:28:17.976Z,0
2023-11-02T00:29:24.120Z,0
2023-11-02T00:30:29.274Z,0
2023-11-02T00:31:35.422Z,0
2023-11-02T00:32:41.561Z,0
2023-11-02T00:33:47.709Z,0
2023-11-02T00:34:53.850Z,0
2023-11-02T00:35:59.994Z,0
2023-11-02T00:37:06.132Z,0
2023-11-02T00:38:12.305Z,0
2023-11-02T00:39:18.425Z,0
2023-11-02T00:40:24.566Z,0
2023-11-02T00:41:30.716Z,0
2023-11-02T00:42:36.886Z,0
2023-11-02T00:43:43.002Z,0
2023-11-02T00:44:48.163Z,0
2023-11-02T00:45:54.339Z,0
2023-11-02T00:47:00.452Z,0
2023-11-02T00:48:06.587Z,0
2023-11-02T00:49:12.734Z,0
2023-11-02T00:50:18.892Z,0
2023-11-02T00:51:25.011Z,0
2023-11-02T00:52:31.160Z,0
2023-11-02T00:53:37.304Z,0
2023-11-02T00:54:43.460Z,0
2023-11-02T00:55:49.592Z,0
2023-11-02T00:56:55.729Z,0
2023-11-02T00:58:01.928Z,0
2023-11-02T00:59:07.039Z,0
2023-11-02T01:00:13.217Z,0
2023-11-02T01:01:19.331Z,0
2023-11-02T01:02:25.474Z,0
2023-11-02T01:03:31.611Z,0
2023-11-02T01:04:37.753Z,0
2023-11-02T01:05:43.895Z,0
2023-11-02T01:06:50.045Z,0
2023-11-02T01:07:56.188Z,0
2023-11-02T01:09:02.330Z,0
2023-11-02T01:10:08.477Z,0
2023-11-02T01:11:14.634Z,0
2023-11-02T01:12:20.756Z,0
2023-11-02T01:13:25.942Z,0
2023-11-02T01:14:32.060Z,0
2023-11-02T01:15:38.215Z,0
2023-11-02T01:16:44.363Z,0
2023-11-02T01:17:50.554Z,0
2023-11-02T01:18:55.644Z,0
2023-11-02T01:20:01.793Z,0
2023-11-02T01:21:08.001Z,0
2023-11-02T01:22:14.101Z,0
2023-11-02T01:23:20.259Z,0
2023-11-02T01:24:26.367Z,0
2023-11-02T01:25:32.522Z,0
2023-11-02T01:26:38.672Z,0
2023-11-02T01:27:44.818Z,0
2023-11-02T01:28:50.940Z,0
2023-11-02T01:29:57.089Z,0
2023-11-02T01:31:03.230Z,0
2023-11-02T01:32:09.387Z,0
2023-11-02T01:33:14.515Z,0
2023-11-02T01:34:20.674Z,0
2023-11-02T01:35:26.821Z,0
2023-11-02T01:36:32.978Z,0
2023-11-02T01:37:39.101Z,0
2023-11-02T01:38:45.253Z,0
2023-11-02T01:39:51.397Z,0
2023-11-02T01:40:57.530Z,0
2023-11-02T01:42:03.684Z,0
2023-11-02T01:43:09.901Z,0
2023-11-02T01:44:15.977Z,0
2023-11-02T01:45:22.206Z,0
2023-11-02T01:46:28.258Z,0
2023-11-02T01:47:34.391Z,0
2023-11-02T01:48:39.581Z,0
2023-11-02T01:49:45.766Z,0
2023-11-02T01:50:51.843Z,0
2023-11-02T01:51:57.987Z,0
2023-11-02T01:53:04.141Z,0
2023-11-02T01:54:10.267Z,0
2023-11-02T01:55:16.422Z,0
2023-11-02T01:56:22.576Z,0
2023-11-02T01:57:28.703Z,0
2023-11-02T01:58:34.860Z,0
2023-11-02T01:59:40.983Z,0
2023-11-02T02:00:47.140Z,0
2023-11-02T02:01:53.278Z,0
2023-11-02T02:02:58.440Z,0
2023-11-02T02:04:04.583Z,0
2023-11-02T02:05:10.721Z,0
2023-11-02T02:06:16.907Z,0
2023-11-02T02:07:23.015Z,0
2023-11-02T02:08:29.150Z,0
2023-11-02T02:09:35.280Z,0
2023-11-02T02:10:41.484Z,0
2023-11-02T02:11:47.644Z,0
2023-11-02T02:12:53.721Z,0
2023-11-02T02:13:59.865Z,0
2023-11-02T02:15:06.001Z,0
2023-11-02T02:16:12.156Z,0
2023-11-02T02:17:17.340Z,0
2023-11-02T02:18:23.458Z,0
2023-11-02T02:19:29.604Z,0
2023-11-02T02:20:35.815Z,0
2023-11-02T02:21:41.905Z,0
2023-11-02T02:22:48.028Z,0
2023-11-02T02:23:54.318Z,0
2023-11-02T02:25:00.323Z,0
2023-11-02T02:26:06.448Z,0
2023-11-02T02:27:12.612Z,0
2023-11-02T02:28:18.852Z,0
2023-11-02T02:29:25.050Z,0
2023-11-02T02:30:31.149Z,0
2023-11-02T02:31:36.325Z,0
2023-11-02T02:32:42.465Z,0
2023-11-02T02:33:48.617Z,0
2023-11-02T02:34:54.764Z,0
2023-11-02T02:36:00.881Z,0
2023-11-02T02:37:07.075Z,0
2023-11-02T02:38:13.183Z,0
2023-11-02T02:39:19.316Z,0
2023-11-02T02:40:25.452Z,0
2023-11-02T02:41:31.597Z,0
2023-11-02T02:42:37.758Z,0
2023-11-02T02:43:43.893Z,0
2023-11-02T02:44:50.020Z,0
2023-11-02T02:45:55.191Z,0
2023-11-02T02:47:01.323Z,0
2023-11-02T02:48:07.473Z,0
2023-11-02T02:49:13.635Z,0
2023-11-02T02:50:19.789Z,0
2023-11-02T02:51:25.905Z,0
2023-11-02T02:52:32.052Z,0
2023-11-02T02:53:38.206Z,0
2023-11-02T02:54:44.335Z,0
2023-11-02T02:55:50.476Z,0
2023-11-02T02:56:56.615Z,0
2023-11-02T02:58:02.788Z,0
2023-11-02T02:59:08.987Z,0
2023-11-02T03:00:14.063Z,0
2023-11-02T03:01:20.231Z,0
2023-11-02T03:02:26.357Z,0
2023-11-02T03:03:32.491Z,0
2023-11-02T03:04:38.656Z,0
2023-11-02T03:05:44.791Z,0
2023-11-02T03:06:50.952Z,0
2023-11-02T03:07:57.061Z,0
2023-11-02T03:09:03.345Z,0
2023-11-02T03:10:09.494Z,0
2023-11-02T03:11:15.646Z,0
2023-11-02T03:12:21.771Z,0
2023-11-02T03:13:27.934Z,0
2023-11-02T03:14:33.064Z,0
2023-11-02T03:15:39.385Z,0
2023-11-02T03:16:45.394Z,0
2023-11-02T03:17:51.503Z,0
2023-11-02T03:18:57.673Z,0
2023-11-02T03:20:03.797Z,0
2023-11-02T03:21:09.927Z,0
2023-11-02T03:22:16.077Z,0
2023-11-02T03:23:22.249Z,0
2023-11-02T03:24:28.364Z,0
2023-11-02T03:25:34.523Z,0
2023-11-02T03:26:40.645Z,0
2023-11-02T03:27:46.796Z,0
2023-11-02T03:28:51.946Z,0
2023-11-02T03:29:58.094Z,0
2023-11-02T03:31:04.226Z,0
2023-11-02T03:32:10.381Z,0
2023-11-02T03:33:16.520Z,0
2023-11-02T03:34:22.677Z,0
2023-11-02T03:35:28.802Z,0
2023-11-02T03:36:34.953Z,0
2023-11-02T03:37:41.097Z,0
2023-11-02T03:38:47.309Z,0
2023-11-02T03:39:53.393Z,0
2023-11-02T03:40:59.521Z,0
2023-11-02T03:42:05.663Z,0
2023-11-02T03:43:10.819Z,0
2023-11-02T03:44:16.968Z,0
2023-11-02T03:45:23.120Z,0
2023-11-02T03:46:29.258Z,0
2023-11-02T03:47:35.416Z,0
2023-11-02T03:48:41.534Z,0
2023-11-02T03:49:47.681Z,0
2023-11-02T03:50:53.829Z,0
2023-11-02T03:52:00.026Z,0
2023-11-02T03:53:06.111Z,0
2023-11-02T03:54:12.247Z,0
2023-11-02T03:55:18.407Z,0
2023-11-02T03:56:24.654Z,0
2023-11-02T03:57:29.718Z,0
2023-11-02T03:58:35.845Z,0
2023-11-02T03:59:41.990Z,0
2023-11-02T04:00:48.127Z,0
2023-11-02T04:01:54.288Z,0
2023-11-02T04:03:00.417Z,0
2023-11-02T04:04:06.567Z,0
2023-11-02T04:05:12.786Z,0
2023-11-02T04:06:18.843Z,0
2023-11-02T04:07:25.007Z,0
2023-11-02T04:08:31.142Z,0
2023-11-02T04:09:37.280Z,0
2023-11-02T04:10:43.422Z,0
2023-11-02T04:11:48.589Z,0
2023-11-02T04:12:54.740Z,0
2023-11-02T04:14:00.868Z,0
2023-11-02T04:15:07.007Z,0
2023-11-02T04:16:13.147Z,0
2023-11-02T04:17:19.296Z,0
2023-11-02T04:18:25.458Z,0
2023-11-02T04:19:31.586Z,0
2023-11-02T04:20:37.719Z,0
2023-11-02T04:21:43.864Z,0
2023-11-02T04:22:50.008Z,0
2023-11-02T04:23:56.169Z,0
2023-11-02T04:25:02.302Z,0
2023-11-02T04:26:07.461Z,0
2023-11-02T04:27:13.609Z,0
2023-11-02T04:28:19.757Z,0
2023-11-02T04:29:25.900Z,0
2023-11-02T04:30:32.038Z,0
2023-11-02T04:31:38.181Z,0
2023-11-02T04:32:44.313Z,0
2023-11-02T04:33:50.490Z,0
2023-11-02T04:34:56.605Z,0
2023-11-02T04:36:02.764Z,0
2023-11-02T04:37:08.901Z,0
2023-11-02T04:38:15.081Z,0
2023-11-02T04:39:21.189Z,0
2023-11-02T04:40:26.386Z,0
2023-11-02T04:41:32.486Z,0
2023-11-02T04:42:38.624Z,0
2023-11-02T04:43:44.784Z,0
2023-11-02T04:44:50.970Z,0
2023-11-02T04:45:57.112Z,0
2023-11-02T04:47:03.195Z,0
2023-11-02T04:48:09.343Z,0
2023-11-02T04:49:15.504Z,0
2023-11-02T04:50:21.634Z,0
2023-11-02T04:51:27.802Z,0
2023-11-02T04:52:33.920Z,0
2023-11-02T04:53:40.058Z,0
2023-11-02T04:54:45.214Z,0
2023-11-02T04:55:51.366Z,0
2023-11-02T04:56:57.625Z,0
2023-11-02T04:58:03.634Z,0
2023-11-02T04:59:09.782Z,0
2023-11-02T05:00:14.948Z,0
2023-11-02T05:01:21.166Z,0
2023-11-02T05:02:27.254Z,0
2023-11-02T05:03:33.400Z,0
2023-11-02T05:04:39.514Z,0
2023-11-02T05:05:45.696Z,0
2023-11-02T05:06:51.827Z,0
2023-11-02T05:07:57.948Z,0
2023-11-02T05:09:04.098Z,0
2023-11-02T05:10:10.240Z,0
2023-11-02T05:11:16.376Z,0
2023-11-02T05:12:22.536Z,0
2023-11-02T05:13:28.673Z,0
2023-11-02T05:14:33.835Z,0
2023-11-02T05:15:39.969Z,0
2023-11-02T05:16:46.113Z,0
2023-11-02T05:17:52.249Z,0
2023-11-02T05:18:58.412Z,0
2023-11-02T05:20:04.530Z,0
2023-11-02T05:21:10.693Z,0
2023-11-02T05:22:16.824Z,0
2023-11-02T05:23:22.964Z,0
2023-11-02T05:24:29.107Z,0
2023-11-02T05:25:35.260Z,0
2023-11-02T05:26:41.408Z,0
2023-11-02T05:27:47.551Z,0
2023-11-02T05:28:52.708Z,0
2023-11-02T05:29:58.866Z,0
2023-11-02T05:31:04.985Z,0
2023-11-02T05:32:11.133Z,0
2023-11-02T05:33:17.273Z,0
2023-11-02T05:34:23.437Z,0
2023-11-02T05:35:29.609Z,0
2023-11-02T05:36:35.704Z,0
2023-11-02T05:37:41.844Z,0
2023-11-02T05:38:47.996Z,0
2023-11-02T05:39:54.135Z,0
2023-11-02T05:41:00.272Z,0
2023-11-02T05:42:06.520Z,0
2023-11-02T05:43:11.598Z,0
2023-11-02T05:44:17.729Z,0
2023-11-02T05:45:23.860Z,0
2023-11-02T05:46:30.019Z,0
2023-11-02T05:47:36.151Z,0
2023-11-02T05:48:42.299Z,0
2023-11-02T05:49:48.445Z,0
2023-11-02T05:50:54.580Z,0
2023-11-02T05:52:00.744Z,0
2023-11-02T05:53:06.879Z,0
2023-11-02T05:54:13.012Z,0
2023-11-02T05:55:19.185Z,0
2023-11-02T05:56:25.317Z,0
2023-11-02T05:57:30.467Z,0
2023-11-02T05:58:36.610Z,0
2023-11-02T05:59:42.764Z,0
2023-11-02T06:00:48.901Z,0
2023-11-02T06:01:55.036Z,0
2023-11-02T06:03:01.180Z,0
2023-11-02T06:04:07.347Z,0
2023-11-02T06:05:13.469Z,0
2023-11-02T06:06:19.736Z,0
2023-11-02T06:07:25.936Z,0
2023-11-02T06:08:32.052Z,0
2023-11-02T06:09:38.183Z,0
2023-11-02T06:10:44.317Z,0
2023-11-02T06:11:49.464Z,0
2023-11-02T06:12:55.608Z,0
2023-11-02T06:14:01.754Z,0
2023-11-02T06:15:07.898Z,0
2023-11-02T06:16:14.041Z,0
2023-11-02T06:17:20.300Z,0
2023-11-02T06:18:26.326Z,0
2023-11-02T06:19:32.490Z,0
2023-11-02T06:20:38.665Z,0
2023-11-02T06:21:44.760Z,0
2023-11-02T06:22:50.901Z,0
2023-11-02T06:23:57.043Z,0
2023-11-02T06:25:03.248Z,0
2023-11-02T06:26:08.379Z,0
2023-11-02T06:27:14.490Z,0
2023-11-02T06:28:20.634Z,0
2023-11-02T06:29:26.770Z,0
2023-11-02T06:30:32.913Z,0
2023-11-02T06:31:39.065Z,0
2023-11-02T06:32:45.202Z,0
2023-11-02T06:33:51.401Z,0
2023-11-02T06:34:57.500Z,0
2023-11-02T06:36:03.649Z,0
2023-11-02T06:37:09.775Z,0
2023-11-02T06:38:15.917Z,0
2023-11-02T06:39:22.058Z,0
2023-11-02T06:40:27.221Z,0
2023-11-02T06:41:33.414Z,0
2023-11-02T06:42:39.534Z,0
2023-11-02T06:43:45.719Z,0
2023-11-02T06:44:51.791Z,0
2023-11-02T06:45:57.936Z,5
2023-11-02T06:47:04.089Z,5
2023-11-02T06:48:10.222Z,5
2023-11-02T06:49:16.390Z,5
2023-11-02T06:50:22.589Z,5
2023-11-02T06:51:28.642Z,5
2023-11-02T06:53:40.951Z,5
2023-11-02T06:54:46.125Z,5
2023-11-02T06:55:52.255Z,5
2023-11-02T06:56:58.409Z,5
2023-11-02T06:58:04.563Z,5
2023-11-02T06:59:10.694Z,5
2023-11-02T07:00:16.814Z,5
2023-11-02T07:01:22.996Z,5
2023-11-02T07:02:29.138Z,5
2023-11-02T07:03:35.246Z,5
2023-11-02T07:04:41.454Z,5
2023-11-02T07:05:47.534Z,5
2023-11-02T07:06:53.673Z,5
2023-11-02T07:07:59.823Z,5
2023-11-02T07:09:05.971Z,11
2023-11-02T07:10:11.117Z,11
2023-11-02T07:11:17.287Z,11
2023-11-02T07:12:23.401Z,11
2023-11-02T07:13:29.567Z,11
2023-11-02T07:14:35.757Z,11
2023-11-02T07:16:48.109Z,5
2023-11-02T07:17:54.117Z,5
2023-11-02T07:19:00.270Z,5
2023-11-02T07:20:06.411Z,5
2023-11-02T07:21:12.556Z,11
2023-11-02T07:22:18.700Z,11
2023-11-02T07:23:24.845Z,11
2023-11-02T07:24:30.055Z,16
2023-11-02T07:25:36.139Z,16
2023-11-02T07:26:42.389Z,16
2023-11-02T07:27:48.442Z,16
2023-11-02T07:28:54.575Z,16
2023-11-02T07:30:00.719Z,16
2023-11-02T07:31:06.912Z,16
2023-11-02T07:32:13.003Z,16
2023-11-02T07:33:19.200Z,16
2023-11-02T07:34:25.296Z,16
2023-11-02T07:35:31.437Z,16
2023-11-02T07:36:37.574Z,16
2023-11-02T07:37:43.741Z,22
2023-11-02T07:38:48.883Z,22
2023-11-02T07:39:55.039Z,22
2023-11-02T07:41:01.165Z,22
2023-11-02T07:42:07.313Z,28
2023-11-02T07:43:13.477Z,28
2023-11-02T07:44:19.679Z,28
2023-11-02T07:45:25.764Z,28
2023-11-02T07:46:31.883Z,22
2023-11-02T07:47:38.069Z,22
2023-11-02T07:48:44.170Z,28
2023-11-02T07:49:50.314Z,28
2023-11-02T07:50:56.508Z,28
2023-11-02T07:52:02.625Z,28
2023-11-02T07:53:07.780Z,28
2023-11-02T07:54:13.919Z,28
2023-11-02T07:55:20.062Z,28
2023-11-02T07:56:26.196Z,22
2023-11-02T07:57:32.342Z,22
2023-11-02T07:58:38.490Z,28
2023-11-02T07:59:44.634Z,28
2023-11-02T08:00:50.773Z,28
2023-11-02T08:01:56.920Z,28
2023-11-02T08:03:03.042Z,28
2023-11-02T08:04:09.213Z,22
2023-11-02T08:05:15.351Z,22
2023-11-02T08:06:21.586Z,22
2023-11-02T08:07:26.682Z,22
2023-11-02T08:08:32.788Z,16
2023-11-02T08:09:38.934Z,16
2023-11-02T08:10:45.175Z,16
2023-11-02T08:12:57.412Z,16
2023-11-02T08:14:03.501Z,16
2023-11-02T08:15:09.673Z,16
2023-11-02T08:16:15.899Z,16
2023-11-02T08:17:21.928Z,22
2023-11-02T08:18:28.074Z,22
2023-11-02T08:19:34.273Z,28
2023-11-02T08:20:40.374Z,33
2023-11-02T08:21:45.584Z,33
2023-11-02T08:22:51.669Z,39
2023-11-02T08:23:57.811Z,39
2023-11-02T08:25:03.945Z,39
2023-11-02T08:26:10.101Z,39
2023-11-02T08:27:16.239Z,39
2023-11-02T08:28:22.401Z,45
2023-11-02T08:29:28.538Z,45
2023-11-02T08:30:34.695Z,45
2023-11-02T08:31:40.818Z,45
2023-11-02T08:32:46.957Z,39
2023-11-02T08:33:53.108Z,33
2023-11-02T08:34:59.245Z,33
2023-11-02T08:36:04.453Z,33
2023-11-02T08:37:10.569Z,33
2023-11-02T08:38:16.700Z,39
2023-11-02T08:39:22.824Z,45
2023-11-02T08:40:28.973Z,50
2023-11-02T08:41:34.179Z,56
2023-11-02T08:42:40.298Z,61
2023-11-02T08:43:46.427Z,61
2023-11-02T08:44:52.571Z,61
2023-11-02T08:45:58.754Z,61
2023-11-02T08:47:04.891Z,61
2023-11-02T08:48:11.013Z,67
2023-11-02T08:49:17.148Z,67
2023-11-02T08:50:23.286Z,73
2023-11-02T08:51:29.437Z,73
2023-11-02T08:52:35.571Z,78
2023-11-02T08:53:41.753Z,73
2023-11-02T08:54:47.865Z,67
2023-11-02T08:55:53.031Z,61
2023-11-02T08:56:59.163Z,56
2023-11-02T08:58:05.333Z,56
2023-11-02T08:59:11.456Z,56
2023-11-02T09:00:17.602Z,61
2023-11-02T09:01:23.740Z,67
2023-11-02T09:02:29.877Z,73
2023-11-02T09:03:36.036Z,73
2023-11-02T09:04:42.169Z,78
2023-11-02T09:05:48.305Z,78
2023-11-02T09:06:54.475Z,78
2023-11-02T09:08:00.606Z,84
2023-11-02T09:09:06.743Z,90
2023-11-02T09:10:11.910Z,95
2023-11-02T09:11:18.059Z,101
2023-11-02T09:12:24.190Z,101
2023-11-02T09:13:30.327Z,101
2023-11-02T09:14:36.480Z,95
2023-11-02T09:15:42.650Z,95
2023-11-02T09:16:48.754Z,95
2023-11-02T09:17:54.897Z,90
2023-11-02T09:19:01.054Z,90
2023-11-02T09:20:07.193Z,90
2023-11-02T09:21:13.316Z,84
2023-11-02T09:22:19.495Z,78
2023-11-02T09:23:25.620Z,73
2023-11-02T09:24:30.780Z,73
2023-11-02T09:25:36.904Z,73
2023-11-02T09:26:43.080Z,67
2023-11-02T09:27:49.243Z,67
2023-11-02T09:28:55.347Z,61
2023-11-02T09:30:01.487Z,56
2023-11-02T09:31:07.789Z,50
2023-11-02T09:32:13.770Z,39
2023-11-02T09:33:19.919Z,28
2023-11-02T09:34:26.045Z,28
2023-11-02T09:35:32.230Z,28
2023-11-02T09:36:38.345Z,28
2023-11-02T09:37:44.487Z,22
2023-11-02T09:38:49.686Z,22
2023-11-02T09:39:55.808Z,22
2023-11-02T09:41:01.940Z,28
2023-11-02T09:42:08.075Z,28
2023-11-02T09:43:14.235Z,28
2023-11-02T09:44:20.362Z,33
2023-11-02T09:45:26.511Z,45
2023-11-02T09:46:32.652Z,50
2023-11-02T09:47:38.836Z,50
2023-11-02T09:48:44.943Z,61
2023-11-02T09:49:51.087Z,56
2023-11-02T09:50:57.219Z,73
2023-11-02T09:52:03.382Z,61
2023-11-02T09:53:08.532Z,67
2023-11-02T09:54:14.669Z,67
2023-11-02T09:55:20.980Z,67
2023-11-02T09:56:27.162Z,67
2023-11-02T09:57:33.388Z,73
2023-11-02T09:58:39.566Z,73
2023-11-02T09:59:45.560Z,84
2023-11-02T10:00:51.533Z,78
2023-11-02T10:01:57.800Z,73
2023-11-02T10:03:04.014Z,78
2023-11-02T10:04:10.145Z,78
2023-11-02T10:05:16.101Z,73
2023-11-02T10:06:22.235Z,78
2023-11-02T10:07:27.436Z,90
2023-11-02T10:08:33.562Z,90
2023-11-02T10:09:39.687Z,95
2023-11-02T10:10:45.850Z,112
2023-11-02T10:11:52.048Z,112
2023-11-02T10:12:58.328Z,112
2023-11-02T10:14:04.328Z,95
2023-11-02T10:15:10.527Z,101
2023-11-02T10:16:16.578Z,95
2023-11-02T10:17:22.687Z,95
2023-11-02T10:18:28.851Z,78
2023-11-02T10:19:34.970Z,67
2023-11-02T10:20:41.122Z,61
2023-11-02T10:21:46.284Z,56
2023-11-02T10:22:52.435Z,50
2023-11-02T10:23:58.558Z,56
2023-11-02T10:25:04.707Z,50
2023-11-02T10:26:10.858Z,39
2023-11-02T10:27:16.985Z,39
2023-11-02T10:28:23.140Z,39
2023-11-02T10:29:29.353Z,45
2023-11-02T10:30:35.433Z,45
2023-11-02T10:31:41.750Z,50
2023-11-02T10:32:47.966Z,45
2023-11-02T10:33:53.890Z,45
2023-11-02T10:35:00.172Z,45
2023-11-02T10:36:05.164Z,61
2023-11-02T10:37:11.313Z,67
2023-11-02T10:38:17.549Z,61
2023-11-02T10:39:23.707Z,78
2023-11-02T10:40:29.829Z,73
2023-11-02T10:41:36.019Z,78
2023-11-02T10:42:42.184Z,73
2023-11-02T10:43:48.372Z,78
2023-11-02T10:44:54.491Z,78
2023-11-02T10:46:00.674Z,73
2023-11-02T10:47:06.750Z,67
2023-11-02T10:48:12.854Z,67
2023-11-02T10:49:19.018Z,73
2023-11-02T10:50:24.144Z,67
2023-11-02T10:51:30.273Z,67
2023-11-02T10:52:36.428Z,67
2023-11-02T10:53:42.578Z,73
2023-11-02T10:54:48.758Z,73
2023-11-02T10:55:54.861Z,67
2023-11-02T10:57:01.024Z,73
2023-11-02T10:58:07.169Z,73
2023-11-02T10:59:13.300Z,78
2023-11-02T11:00:19.437Z,78
2023-11-02T11:01:25.580Z,78
2023-11-02T11:02:31.746Z,73
2023-11-02T11:03:37.874Z,73
2023-11-02T11:04:44.020Z,73
2023-11-02T11:05:49.187Z,73
2023-11-02T11:06:55.334Z,67
2023-11-02T11:08:01.457Z,61
2023-11-02T11:09:07.596Z,61
2023-11-02T11:10:13.754Z,61
2023-11-02T11:11:19.876Z,61
2023-11-02T11:12:26.025Z,56
2023-11-02T11:13:32.172Z,56
2023-11-02T11:14:38.307Z,56
2023-11-02T11:15:44.458Z,56
2023-11-02T11:16:50.605Z,56
2023-11-02T11:17:56.766Z,56
2023-11-02T11:19:02.877Z,61
2023-11-02T11:20:08.048Z,61
2023-11-02T11:21:14.195Z,61
2023-11-02T11:22:20.349Z,61
2023-11-02T11:23:26.549Z,67
2023-11-02T11:24:32.616Z,67
2023-11-02T11:25:38.768Z,67
2023-11-02T11:26:44.909Z,67
2023-11-02T11:27:51.055Z,73
2023-11-02T11:28:57.194Z,84
2023-11-02T11:30:03.333Z,84
2023-11-02T11:31:09.475Z,73
2023-11-02T11:32:15.615Z,73
2023-11-02T11:33:21.760Z,73
2023-11-02T11:34:26.925Z,67
2023-11-02T11:35:33.081Z,67
2023-11-02T11:36:39.213Z,67
2023-11-02T11:37:45.345Z,61
2023-11-02T11:38:51.557Z,61
2023-11-02T11:39:57.646Z,61
2023-11-02T11:41:03.778Z,67
2023-11-02T11:42:09.913Z,67
2023-11-02T11:43:16.065Z,67
2023-11-02T11:44:22.221Z,61
2023-11-02T11:45:28.367Z,61
2023-11-02T11:46:34.512Z,61
2023-11-02T11:47:40.687Z,61
2023-11-02T11:48:45.795Z,61
2023-11-02T11:49:51.937Z,56
2023-11-02T11:50:58.104Z,61
2023-11-02T11:52:04.224Z,61
2023-11-02T11:53:10.496Z,56
2023-11-02T11:54:16.522Z,45
2023-11-02T11:55:22.688Z,45
2023-11-02T11:56:28.820Z,45
2023-11-02T11:57:34.952Z,45
2023-11-02T11:58:41.099Z,45
2023-11-02T11:59:47.231Z,50
2023-11-02T12:00:53.379Z,50
2023-11-02T12:01:59.512Z,56
2023-11-02T12:03:04.676Z,56
2023-11-02T12:04:10.956Z,61
2023-11-02T12:05:17.100Z,73
2023-11-02T12:06:23.232Z,78
2023-11-02T12:07:29.394Z,73
2023-11-02T12:08:35.531Z,73
2023-11-02T12:09:41.672Z,67
2023-11-02T12:10:47.805Z,56
2023-11-02T12:11:53.973Z,50
2023-11-02T12:13:00.108Z,50
2023-11-02T12:14:06.251Z,50
2023-11-02T12:15:12.384Z,50
2023-11-02T12:16:18.541Z,50
2023-11-02T12:17:23.687Z,50
2023-11-02T12:18:29.828Z,50
2023-11-02T12:19:35.984Z,50
2023-11-02T12:20:42.118Z,50
2023-11-02T12:21:48.260Z,50
2023-11-02T12:22:53.456Z,50
2023-11-02T12:23:59.650Z,45
2023-11-02T12:25:05.699Z,39
2023-11-02T12:26:11.854Z,39
2023-11-02T12:27:17.989Z,33
2023-11-02T12:28:24.157Z,28
2023-11-02T12:29:30.286Z,33
2023-11-02T12:30:36.441Z,39
2023-11-02T12:31:42.567Z,39
2023-11-02T12:32:48.713Z,45
2023-11-02T12:35:00.996Z,39
2023-11-02T12:36:07.145Z,45
2023-11-02T12:37:12.296Z,45
2023-11-02T12:38:18.452Z,45
2023-11-02T12:39:24.572Z,50
2023-11-02T12:40:30.732Z,50
2023-11-02T12:41:36.878Z,50
2023-11-02T12:42:43.019Z,45
2023-11-02T12:43:49.162Z,39
2023-11-02T12:44:55.326Z,33
2023-11-02T12:46:01.451Z,33
2023-11-02T12:47:07.613Z,39
2023-11-02T12:48:13.737Z,39
2023-11-02T12:49:19.871Z,50
2023-11-02T12:50:26.020Z,56
2023-11-02T12:51:31.179Z,56
2023-11-02T12:52:37.312Z,61
2023-11-02T12:53:43.476Z,61
2023-11-02T12:54:49.688Z,56
2023-11-02T12:55:55.744Z,50
2023-11-02T12:57:01.890Z,50
2023-11-02T12:58:08.036Z,50
2023-11-02T12:59:14.182Z,50
2023-11-02T13:00:20.328Z,50
2023-11-02T13:01:26.485Z,50
2023-11-02T13:02:32.623Z,50
2023-11-02T13:03:38.749Z,50
2023-11-02T13:04:44.902Z,50
2023-11-02T13:05:51.050Z,50
2023-11-02T13:06:56.196Z,56
2023-11-02T13:08:02.338Z,56
2023-11-02T13:09:08.487Z,61
2023-11-02T13:10:14.627Z,67
2023-11-02T13:11:20.775Z,73
2023-11-02T13:12:26.916Z,78
2023-11-02T13:13:33.057Z,67
2023-11-02T13:14:39.225Z,61
2023-11-02T13:15:45.366Z,50
2023-11-02T13:16:51.498Z,50
2023-11-02T13:17:57.765Z,45
2023-11-02T13:19:03.780Z,39
2023-11-02T13:20:09.931Z,28
2023-11-02T13:21:15.071Z,28
2023-11-02T13:22:21.217Z,28
2023-11-02T13:23:27.387Z,28
2023-11-02T13:24:33.507Z,28
2023-11-02T13:25:39.646Z,33
2023-11-02T13:26:45.792Z,33
2023-11-02T13:27:51.930Z,33
2023-11-02T13:28:58.077Z,33
2023-11-02T13:30:04.265Z,39
2023-11-02T13:31:10.367Z,39
2023-11-02T13:32:16.529Z,39
2023-11-02T13:33:22.650Z,33
2023-11-02T13:34:28.816Z,33
2023-11-02T13:35:33.969Z,33
2023-11-02T13:36:40.096Z,33
2023-11-02T13:37:46.301Z,28
2023-11-02T13:38:52.391Z,28
2023-11-02T13:39:58.533Z,28
2023-11-02T13:41:04.669Z,22
2023-11-02T13:42:10.813Z,22
2023-11-02T13:43:17.066Z,22
2023-11-02T13:44:23.100Z,22
2023-11-02T13:45:29.270Z,28
2023-11-02T13:46:35.394Z,28
2023-11-02T13:47:41.560Z,28
2023-11-02T13:48:47.662Z,28
2023-11-02T13:49:52.831Z,28
2023-11-02T13:50:59.004Z,22
2023-11-02T13:52:05.117Z,22
2023-11-02T13:53:11.269Z,22
2023-11-02T13:54:17.420Z,22
2023-11-02T13:55:23.533Z,22
2023-11-02T13:56:29.692Z,16
2023-11-02T13:57:35.838Z,16
2023-11-02T13:58:41.982Z,16
2023-11-02T13:59:48.128Z,16
2023-11-02T14:00:54.263Z,16
2023-11-02T14:02:00.438Z,11
2023-11-02T14:03:06.574Z,11
2023-11-02T14:04:11.722Z,11
2023-11-02T14:05:17.857Z,11
2023-11-02T14:06:23.988Z,11
2023-11-02T14:07:30.166Z,11
2023-11-02T14:08:36.288Z,11
2023-11-02T14:09:42.451Z,16
2023-11-02T14:10:48.603Z,11
2023-11-02T14:11:54.704Z,11
2023-11-02T14:13:00.869Z,11
2023-11-02T14:14:06.994Z,11
2023-11-02T14:15:13.136Z,11
2023-11-02T14:16:19.275Z,11
2023-11-02T14:17:25.424Z,11
2023-11-02T14:18:30.589Z,16
2023-11-02T14:19:36.733Z,16
2023-11-02T14:20:42.869Z,16
2023-11-02T14:21:49.015Z,16
2023-11-02T14:22:55.156Z,16
2023-11-02T14:24:01.325Z,16
2023-11-02T14:25:07.442Z,16
2023-11-02T14:26:13.594Z,16
2023-11-02T14:27:19.732Z,16
2023-11-02T14:28:25.913Z,16
2023-11-02T14:29:32.016Z,11
2023-11-02T14:30:38.149Z,11
2023-11-02T14:31:44.316Z,16
2023-11-02T14:32:49.465Z,16
2023-11-02T14:33:55.610Z,16
2023-11-02T14:35:01.763Z,16
2023-11-02T14:36:07.926Z,16
2023-11-02T14:37:14.037Z,16
2023-11-02T14:38:20.171Z,16
2023-11-02T14:39:26.335Z,16
2023-11-02T14:40:32.496Z,16
2023-11-02T14:42:44.766Z,11
2023-11-02T14:43:50.894Z,11
2023-11-02T14:44:57.072Z,11
2023-11-02T14:46:03.186Z,11
2023-11-02T14:47:08.350Z,5
2023-11-02T14:48:14.498Z,5
2023-11-02T14:49:20.625Z,11
2023-11-02T14:50:26.767Z,11
2023-11-02T14:51:32.916Z,11
2023-11-02T14:52:39.047Z,11
2023-11-02T14:53:45.198Z,11
2023-11-02T14:54:51.348Z,11
2023-11-02T14:55:57.505Z,11
2023-11-02T14:57:03.646Z,11
2023-11-02T14:58:09.794Z,11
2023-11-02T14:59:15.909Z,11
2023-11-02T15:00:22.053Z,11
2023-11-02T15:01:28.222Z,16
2023-11-02T15:02:33.387Z,16
2023-11-02T15:03:39.536Z,16
2023-11-02T15:04:45.649Z,22
2023-11-02T15:05:51.835Z,16
2023-11-02T15:06:57.929Z,16
2023-11-02T15:08:04.075Z,16
2023-11-02T15:09:10.232Z,16
2023-11-02T15:10:16.365Z,16
2023-11-02T15:12:28.668Z,22
2023-11-02T15:13:34.813Z,22
2023-11-02T15:14:40.959Z,22
2023-11-02T15:15:47.089Z,22
2023-11-02T15:16:52.250Z,28
2023-11-02T15:17:58.384Z,33
2023-11-02T15:19:04.527Z,28
2023-11-02T15:20:10.674Z,33
2023-11-02T15:21:16.866Z,28
2023-11-02T15:22:22.951Z,28
2023-11-02T15:23:29.091Z,28
2023-11-02T15:24:35.254Z,33
2023-11-02T15:25:41.508Z,39
2023-11-02T15:26:47.515Z,33
2023-11-02T15:27:53.682Z,28
2023-11-02T15:28:59.933Z,28
2023-11-02T15:30:05.968Z,22
2023-11-02T15:31:11.148Z,22
2023-11-02T15:32:17.285Z,22
2023-11-02T15:33:23.390Z,22
2023-11-02T15:34:29.539Z,22
2023-11-02T15:35:35.682Z,22
2023-11-02T15:36:41.834Z,16
2023-11-02T15:37:48.015Z,16
2023-11-02T15:38:54.132Z,16
2023-11-02T15:40:00.269Z,16
2023-11-02T15:41:06.427Z,16
2023-11-02T15:42:12.619Z,16
2023-11-02T15:43:18.698Z,16
2023-11-02T15:44:24.836Z,16
2023-11-02T15:45:29.989Z,16
2023-11-02T15:46:36.148Z,16
2023-11-02T15:47:42.293Z,16
2023-11-02T15:48:48.435Z,11
2023-11-02T15:49:54.583Z,11
2023-11-02T15:51:00.720Z,11
2023-11-02T15:52:06.839Z,5
2023-11-02T15:53:12.992Z,5
2023-11-02T15:54:19.148Z,5
2023-11-02T15:55:25.286Z,5
2023-11-02T15:56:31.433Z,5
2023-11-02T15:57:37.631Z,5
2023-11-02T15:58:43.706Z,0
2023-11-02T15:59:48.871Z,0
2023-11-02T16:00:55.019Z,0
2023-11-02T16:02:01.157Z,0
2023-11-02T16:03:07.332Z,0
2023-11-02T16:04:13.622Z,0